Weather History for Decorah, IA

Change the Weather History Date:

Monday, January 27, 2014

  Actual Average Record
Temperature  
Mean Temperature -8 °F -  
Max Temperature -4 °F 23 °F -4 °F (2014)
Min Temperature -13 °F 4 °F -13 °F (2014)
Degree Days  
Heating Degree Days 74    
Moisture  
Dew Point -20 °F    
Average Humidity 59    
Maximum Humidity 71    
Minimum Humidity 45    
Precipitation  
Precipitation 0.00 in - - ()
Sea Level Pressure  
Sea Level Pressure 30.27 in    
Wind  
Wind Speed 13 mph (WNW)    
Max Wind Speed 18 mph    
Max Gust Speed 32 mph    
Visibility 8 miles    
Events Snow    
Averages and records for this station are not official NWS values.
T = Trace of Precipitation, MM = Missing Value Source: NWS Daily Summary

Daily Weather History Graph

Daily Weather History Graph

Search for Another Location

Airport:

Trip Planner

Search our weather history database for the weather conditions in past years. The results will help you decide how hot, cold, wet, or windy it might be!

Date:

Astronomy

Jan. 27, 2014 Rise Set
Actual Time 7:27 AM CST 5:12 PM CST
Civil Twilight 6:56 AM CST 5:43 PM CST
Nautical Twilight 6:22 AM CST 6:17 PM CST
Astronomical Twilight 5:48 AM CST 6:51 PM CST
Moon 4:10 AM CST (1/27) 1:57 PM CST (1/27)
Length of Visible Light 10h 46m
Length of Day
9h 44m
Waning Crescent, 14% of the Moon is Illuminated
Jan 27
Waning Crescent
Jan 30
New
Feb 6
First Quarter
Feb 14
Full
Feb 22
Last Quarter

Hourly Weather History & Observations

Time (CST) Temp. Windchill Dew Point Humidity Pressure Visibility Wind Dir Wind Speed Gust Speed Precip Events Conditions
12:15 AM -4.0 °F -22.1 °F -13.0 °F 65% 30.00 in 6.0 mi WNW 11.5 mph 20.7 mph N/A   Haze
12:35 AM -4.0 °F -23.7 °F -13.0 °F 65% 30.00 in 5.0 mi NW 13.8 mph 24.2 mph N/A   Haze
12:55 AM -4.0 °F -24.5 °F -13.0 °F 65% 30.02 in 6.0 mi NW 15.0 mph 24.2 mph N/A   Haze
1:15 AM -4.0 °F -25.8 °F -13.0 °F 65% 30.02 in 5.0 mi NW 17.3 mph 28.8 mph N/A   Haze
1:35 AM -4.0 °F -24.5 °F -14.8 °F 60% 30.04 in 7.0 mi NW 15.0 mph 25.3 mph N/A   Overcast
1:55 AM -5.8 °F -26.0 °F -14.8 °F 65% 30.05 in 6.0 mi WNW 13.8 mph 27.6 mph N/A   Haze
2:15 AM -5.8 °F -25.2 °F -14.8 °F 65% 30.06 in 6.0 mi WNW 12.7 mph 26.5 mph N/A   Haze
2:35 AM -5.8 °F -28.2 °F -16.6 °F 60% 30.08 in 6.0 mi WNW 17.3 mph 28.8 mph N/A   Haze
2:55 AM -7.6 °F -28.3 °F -16.6 °F 65% 30.09 in 6.0 mi NW 13.8 mph 27.6 mph N/A   Haze
3:15 AM -7.6 °F -28.3 °F -14.8 °F 71% 30.10 in 2.5 mi WNW 13.8 mph 26.5 mph N/A Snow Light Snow
3:35 AM -7.6 °F -28.3 °F -18.4 °F 59% 30.11 in 7.0 mi NW 13.8 mph 27.6 mph N/A   Overcast
3:55 AM -7.6 °F -29.8 °F -16.6 °F 65% 30.11 in 2.0 mi NW 16.1 mph 32.2 mph N/A Snow Light Snow
4:15 AM -9.4 °F -32.1 °F -18.4 °F 65% 30.12 in 6.0 mi NW 16.1 mph 26.5 mph N/A   Haze
4:35 AM -9.4 °F -32.1 °F -20.2 °F 59% 30.14 in 7.0 mi NW 16.1 mph 28.8 mph N/A   Overcast
4:55 AM -9.4 °F -32.1 °F -18.4 °F 65% 30.14 in 7.0 mi NW 16.1 mph 24.2 mph N/A   Overcast
5:15 AM -9.4 °F -33.5 °F -20.2 °F 59% 30.15 in 5.0 mi NW 18.4 mph 25.3 mph N/A   Haze
5:35 AM -9.4 °F -29.8 °F -20.2 °F 59% 30.16 in 10.0 mi NW 12.7 mph 19.6 mph N/A   Overcast
5:55 AM -9.4 °F -32.8 °F -20.2 °F 59% 30.17 in 10.0 mi NW 17.3 mph 23.0 mph N/A   Overcast
6:15 AM -11.2 °F -33.7 °F -20.2 °F 64% 30.17 in 4.0 mi NW 15.0 mph 23.0 mph N/A   Haze
6:35 AM -11.2 °F -34.4 °F -22.0 °F 59% 30.18 in 9.0 mi NW 16.1 mph 31.1 mph N/A   Overcast
6:55 AM -11.2 °F -32.1 °F -22.0 °F 59% 30.20 in 8.0 mi NW 12.7 mph 18.4 mph N/A   Overcast
7:15 AM -11.2 °F -29.0 °F -20.2 °F 64% 30.22 in 3.0 mi WNW 9.2 mph 16.1 mph N/A   Haze
7:35 AM -13.0 °F -36.8 °F -22.0 °F 64% 30.24 in 9.0 mi NW 16.1 mph 23.0 mph N/A   Overcast
7:55 AM -13.0 °F -34.3 °F -23.8 °F 59% 30.25 in 5.0 mi NW 12.7 mph 25.3 mph N/A   Haze
8:15 AM -13.0 °F -33.4 °F -22.0 °F 64% 30.26 in 5.0 mi NW 11.5 mph 19.6 mph N/A   Haze
8:35 AM -13.0 °F -34.3 °F -23.8 °F 59% 30.27 in 5.0 mi NW 12.7 mph 21.9 mph N/A   Haze
8:55 AM -13.0 °F -36.0 °F -23.8 °F 59% 30.28 in 8.0 mi NW 15.0 mph 23.0 mph N/A   Mostly Cloudy
9:15 AM -13.0 °F -37.5 °F -23.8 °F 59% 30.29 in 7.0 mi NW 17.3 mph 25.3 mph N/A   Mostly Cloudy
9:35 AM -13.0 °F -33.4 °F -23.8 °F 59% 30.29 in 3.0 mi NW 11.5 mph 23.0 mph N/A   Haze
9:55 AM -11.2 °F -32.9 °F -23.8 °F 54% 30.30 in 9.0 mi NW 13.8 mph 26.5 mph N/A   Mostly Cloudy
10:15 AM -11.2 °F -31.1 °F -23.8 °F 54% 30.30 in 10.0 mi WNW 11.5 mph 23.0 mph N/A   Mostly Cloudy
10:35 AM -11.2 °F -33.7 °F -25.6 °F 49% 30.30 in 10.0 mi NW 15.0 mph 23.0 mph N/A   Mostly Cloudy
10:55 AM -11.2 °F -33.7 °F -23.8 °F 54% 30.32 in 10.0 mi NW 15.0 mph 23.0 mph N/A   Scattered Clouds
11:15 AM -9.4 °F -33.5 °F -23.8 °F 49% 30.32 in 10.0 mi NW 18.4 mph 27.6 mph N/A   Mostly Cloudy
11:35 AM -9.4 °F -29.8 °F -23.8 °F 49% 30.33 in 10.0 mi WNW 12.7 mph 23.0 mph N/A   Scattered Clouds
11:55 AM -9.4 °F -28.9 °F -23.8 °F 49% 30.33 in 10.0 mi NW 11.5 mph 21.9 mph N/A   Partly Cloudy
12:15 PM -9.4 °F -32.1 °F -23.8 °F 49% 30.32 in 10.0 mi WNW 16.1 mph - N/A   Partly Cloudy
12:30 PM -9.4 °F -28.9 °F -23.8 °F 49% 30.32 in 10.0 mi NW 11.5 mph 24.2 mph N/A   Partly Cloudy
12:55 PM -7.6 °F -26.6 °F -23.8 °F 45% 30.32 in 10.0 mi NW 11.5 mph 19.6 mph N/A   Clear
1:15 PM -7.6 °F -27.5 °F -22.0 °F 50% 30.32 in 10.0 mi WNW 12.7 mph 24.2 mph N/A   Scattered Clouds
1:35 PM -7.6 °F -27.5 °F -22.0 °F 50% 30.32 in 10.0 mi NW 12.7 mph 21.9 mph N/A   Mostly Cloudy
1:55 PM -7.6 °F -29.1 °F -22.0 °F 50% 30.32 in 10.0 mi NW 15.0 mph - N/A   Mostly Cloudy
2:15 PM -7.6 °F -27.5 °F -20.2 °F 54% 30.32 in 10.0 mi WNW 12.7 mph 23.0 mph N/A   Mostly Cloudy
2:35 PM -7.6 °F -27.5 °F -20.2 °F 54% 30.33 in 10.0 mi WNW 12.7 mph 19.6 mph N/A   Overcast
2:55 PM -7.6 °F -28.3 °F -20.2 °F 54% 30.34 in 10.0 mi NW 13.8 mph 21.9 mph N/A   Overcast
3:15 PM -5.8 °F -25.2 °F -20.2 °F 50% 30.34 in 10.0 mi WNW 12.7 mph - N/A   Mostly Cloudy
3:35 PM -5.8 °F -26.0 °F -20.2 °F 50% 30.34 in 10.0 mi NW 13.8 mph 21.9 mph N/A   Scattered Clouds
3:55 PM -5.8 °F -22.4 °F -20.2 °F 50% 30.35 in 10.0 mi WNW 9.2 mph 17.3 mph N/A   Partly Cloudy
4:15 PM -5.8 °F -21.2 °F -20.2 °F 50% 30.35 in 10.0 mi WNW 8.1 mph 17.3 mph N/A   Scattered Clouds
4:35 PM -7.6 °F -26.6 °F -20.2 °F 54% 30.36 in 10.0 mi WNW 11.5 mph - N/A   Mostly Cloudy
4:55 PM -7.6 °F -23.4 °F -20.2 °F 54% 30.36 in 10.0 mi WNW 8.1 mph 13.8 mph N/A   Scattered Clouds
5:15 PM -7.6 °F -22.1 °F -20.2 °F 54% 30.36 in 10.0 mi Variable 6.9 mph 12.7 mph N/A   Partly Cloudy
5:35 PM -7.6 °F -20.6 °F -20.2 °F 54% 30.37 in 10.0 mi Variable 5.8 mph - N/A   Partly Cloudy
5:55 PM -9.4 °F -24.3 °F -20.2 °F 59% 30.37 in 10.0 mi WNW 6.9 mph - N/A   Clear
6:15 PM -9.4 °F -25.6 °F -20.2 °F 59% 30.37 in 10.0 mi WNW 8.1 mph - N/A   Partly Cloudy
6:35 PM -9.4 °F -24.3 °F -20.2 °F 59% 30.37 in 10.0 mi WNW 6.9 mph - N/A   Partly Cloudy
6:55 PM -9.4 °F -22.7 °F -20.2 °F 59% 30.37 in 10.0 mi West 5.8 mph - N/A   Clear
7:15 PM -11.2 °F -26.4 °F -20.2 °F 64% 30.37 in 10.0 mi West 6.9 mph - N/A   Clear
7:35 PM -11.2 °F -26.4 °F -20.2 °F 64% 30.38 in 10.0 mi WNW 6.9 mph - N/A   Clear
7:55 PM -11.2 °F -24.8 °F -20.2 °F 64% 30.38 in 10.0 mi West 5.8 mph - N/A   Clear
8:15 PM -11.2 °F -26.4 °F -20.2 °F 64% 30.37 in 10.0 mi West 6.9 mph - N/A   Scattered Clouds
8:35 PM -11.2 °F -24.8 °F -20.2 °F 64% 30.38 in 10.0 mi West 5.8 mph - N/A   Partly Cloudy
8:55 PM -11.2 °F -24.8 °F -20.2 °F 64% 30.38 in 10.0 mi Variable 5.8 mph - N/A   Scattered Clouds
9:15 PM -11.2 °F -24.8 °F -22.0 °F 59% 30.38 in 10.0 mi WNW 5.8 mph - N/A   Scattered Clouds
9:35 PM -11.2 °F -24.8 °F -20.2 °F 64% 30.39 in 10.0 mi WNW 5.8 mph - N/A   Clear
9:55 PM -11.2 °F -23.0 °F -22.0 °F 59% 30.39 in 10.0 mi West 4.6 mph - N/A   Clear
10:15 PM -13.0 °F -28.6 °F -22.0 °F 64% 30.38 in 10.0 mi Variable 6.9 mph - N/A   Clear
10:35 PM -13.0 °F -25.1 °F -22.0 °F 64% 30.38 in 10.0 mi WNW 4.6 mph - N/A   Clear
10:55 PM -13.0 °F -25.1 °F -22.0 °F 64% 30.38 in 10.0 mi Variable 4.6 mph - N/A   Clear
11:15 PM -13.0 °F -27.0 °F -20.2 °F 70% 30.38 in 10.0 mi West 5.8 mph - N/A   Clear
11:35 PM -13.0 °F -25.1 °F -22.0 °F 64% 30.37 in 10.0 mi Variable 4.6 mph - N/A   Clear
11:55 PM -13.0 °F -22.7 °F -22.0 °F 64% 30.37 in 10.0 mi West 3.5 mph - N/A   Clear